createdAt,value
2023-05-05T00:02:12.871Z,5.10
2023-05-05T00:05:17.166Z,5.00
2023-05-05T00:08:22.210Z,5.00
2023-05-05T00:11:27.036Z,5.00
2023-05-05T00:14:31.451Z,5.00
2023-05-05T00:17:35.801Z,5.00
2023-05-05T00:20:40.304Z,5.00
2023-05-05T00:23:44.518Z,4.90
2023-05-05T00:26:49.020Z,4.90
2023-05-05T00:29:53.264Z,4.90
2023-05-05T00:32:57.603Z,4.90
2023-05-05T00:36:02.437Z,4.90
2023-05-05T00:39:07.102Z,4.90
2023-05-05T00:42:11.270Z,4.80
2023-05-05T00:45:16.854Z,4.80
2023-05-05T00:48:24.384Z,4.80
2023-05-05T00:51:29.239Z,4.80
2023-05-05T00:54:35.029Z,4.80
2023-05-05T00:57:39.718Z,4.70
2023-05-05T01:00:44.534Z,4.70
2023-05-05T01:03:48.901Z,4.70
2023-05-05T01:07:14.850Z,4.70
2023-05-05T01:10:36.182Z,4.60
2023-05-05T01:14:06.255Z,4.60
2023-05-05T01:17:19.382Z,4.60
2023-05-05T01:20:41.198Z,4.60
2023-05-05T01:24:04.353Z,4.60
2023-05-05T01:27:14.744Z,4.60
2023-05-05T01:30:43.878Z,4.50
2023-05-05T01:33:51.881Z,4.60
2023-05-05T01:37:07.515Z,4.50
2023-05-05T01:40:13.520Z,4.50
2023-05-05T01:43:22.835Z,4.50
2023-05-05T01:46:27.687Z,4.50
2023-05-05T01:49:34.232Z,4.40
2023-05-05T01:52:40.841Z,4.40
2023-05-05T01:55:47.921Z,4.40
2023-05-05T01:58:54.380Z,4.40
2023-05-05T02:02:01.604Z,4.40
2023-05-05T02:05:06.923Z,4.40
2023-05-05T02:08:12.164Z,4.40
2023-05-05T02:11:17.824Z,4.40
2023-05-05T02:14:26.472Z,4.30
2023-05-05T02:17:31.796Z,4.40
2023-05-05T02:20:39.626Z,4.30
2023-05-05T02:23:47.265Z,4.30
2023-05-05T02:26:54.073Z,4.30
2023-05-05T02:30:01.920Z,4.30
2023-05-05T02:33:10.664Z,4.30
2023-05-05T02:36:20.253Z,4.30
2023-05-05T02:39:45.063Z,4.30
2023-05-05T02:42:56.249Z,4.30
2023-05-05T02:46:06.607Z,4.20
2023-05-05T02:49:11.484Z,4.30
2023-05-05T02:52:17.518Z,4.30
2023-05-05T02:55:22.595Z,4.20
2023-05-05T02:58:37.038Z,4.20
2023-05-05T03:02:16.954Z,4.20
2023-05-05T03:05:24.108Z,4.20
2023-05-05T03:08:42.814Z,4.20
2023-05-05T03:12:00.788Z,4.20
2023-05-05T03:15:08.620Z,4.20
2023-05-05T03:18:15.538Z,4.20
2023-05-05T03:21:23.555Z,4.20
2023-05-05T03:24:28.576Z,4.20
2023-05-05T03:27:41.528Z,4.20
2023-05-05T03:30:46.949Z,4.20
2023-05-05T03:33:52.498Z,4.20
2023-05-05T03:36:59.286Z,4.30
2023-05-05T03:40:03.869Z,4.30
2023-05-05T03:43:09.129Z,4.40
2023-05-05T03:46:13.676Z,4.40
2023-05-05T03:49:19.114Z,4.40
2023-05-05T03:52:25.709Z,4.50
2023-05-05T03:55:30.470Z,4.60
2023-05-05T03:58:34.823Z,4.70
2023-05-05T04:01:39.320Z,4.80
2023-05-05T04:04:44.196Z,4.90
2023-05-05T04:07:48.828Z,5.00
2023-05-05T04:10:53.511Z,5.10
2023-05-05T04:13:58.414Z,5.20
2023-05-05T04:17:04.564Z,5.30
2023-05-05T04:20:10.006Z,5.40
2023-05-05T04:23:14.922Z,5.40
2023-05-05T04:26:19.869Z,5.60
2023-05-05T04:29:25.098Z,5.60
2023-05-05T04:32:29.415Z,5.70
2023-05-05T04:35:33.959Z,5.80
2023-05-05T04:38:38.551Z,5.90
2023-05-05T04:41:44.180Z,6.00
2023-05-05T04:44:48.628Z,6.20
2023-05-05T04:47:53.033Z,6.20
2023-05-05T04:50:57.228Z,6.40
2023-05-05T04:54:01.579Z,6.60
2023-05-05T04:57:06.296Z,6.60
2023-05-05T05:00:11.355Z,6.50
2023-05-05T05:03:15.531Z,6.60
2023-05-05T05:06:19.880Z,6.80
2023-05-05T05:09:24.171Z,6.90
2023-05-05T05:12:28.592Z,6.90
2023-05-05T05:15:32.978Z,7.10
2023-05-05T05:18:37.328Z,7.40
2023-05-05T05:21:41.569Z,7.60
2023-05-05T05:24:45.777Z,7.70
2023-05-05T05:28:02.206Z,7.50
2023-05-05T05:31:13.310Z,7.70
2023-05-05T05:34:18.317Z,7.60
2023-05-05T05:37:23.270Z,7.70
2023-05-05T05:40:27.615Z,8.10
2023-05-05T05:43:32.897Z,8.10
2023-05-05T05:46:37.187Z,8.00
2023-05-05T05:49:41.718Z,8.00
2023-05-05T05:52:46.241Z,8.10
2023-05-05T05:55:50.702Z,8.40
2023-05-05T05:58:54.932Z,8.20
2023-05-05T06:02:01.605Z,8.40
2023-05-05T06:05:06.718Z,8.40
2023-05-05T06:08:10.878Z,8.50
2023-05-05T06:11:21.386Z,8.50
2023-05-05T06:14:26.537Z,8.60
2023-05-05T06:17:30.977Z,8.60
2023-05-05T06:20:35.225Z,8.90
2023-05-05T06:23:39.826Z,9.00
2023-05-05T06:26:45.018Z,8.90
2023-05-05T06:29:49.531Z,8.90
2023-05-05T06:32:54.307Z,9.00
2023-05-05T06:35:58.446Z,9.10
2023-05-05T06:39:02.523Z,9.30
2023-05-05T06:42:06.703Z,9.30
2023-05-05T06:45:12.650Z,9.20
2023-05-05T06:48:16.993Z,9.10
2023-05-05T06:51:22.710Z,9.30
2023-05-05T06:54:27.423Z,9.40
2023-05-05T06:57:31.809Z,9.90
2023-05-05T07:00:36.096Z,10.10
2023-05-05T07:03:40.605Z,10.20
2023-05-05T07:06:45.151Z,10.30
2023-05-05T07:09:49.540Z,10.00
2023-05-05T07:12:54.882Z,10.10
2023-05-05T07:15:59.936Z,9.90
2023-05-05T07:19:07.445Z,10.20
2023-05-05T07:22:12.133Z,10.00
2023-05-05T07:25:16.569Z,9.40
2023-05-05T07:28:22.396Z,9.30
2023-05-05T07:31:26.861Z,9.60
2023-05-05T07:34:34.179Z,10.10
2023-05-05T07:37:38.630Z,9.60
2023-05-05T07:40:43.233Z,9.40
2023-05-05T07:43:47.689Z,9.60
2023-05-05T07:46:51.944Z,9.10
2023-05-05T07:49:56.856Z,9.50
2023-05-05T07:53:10.592Z,9.90
2023-05-05T07:56:19.333Z,9.60
2023-05-05T07:59:25.996Z,9.90
2023-05-05T08:02:30.637Z,9.90
2023-05-05T08:05:35.277Z,10.40
2023-05-05T08:08:39.835Z,10.60
2023-05-05T08:11:44.001Z,10.40
2023-05-05T08:14:48.342Z,10.50
2023-05-05T08:17:53.257Z,11.20
2023-05-05T08:20:57.882Z,10.60
2023-05-05T08:24:02.485Z,10.30
2023-05-05T08:27:06.856Z,10.70
2023-05-05T08:30:11.985Z,11.00
2023-05-05T08:33:16.724Z,10.90
2023-05-05T08:36:21.138Z,10.90
2023-05-05T08:39:25.473Z,10.70
2023-05-05T08:42:37.852Z,10.80
2023-05-05T08:45:44.542Z,11.20
2023-05-05T08:48:51.689Z,10.80
2023-05-05T08:52:01.305Z,11.10
2023-05-05T08:55:27.165Z,11.20
2023-05-05T08:58:31.788Z,10.60
2023-05-05T09:01:36.446Z,10.00
2023-05-05T09:04:41.239Z,9.80
2023-05-05T09:07:47.125Z,9.40
2023-05-05T09:10:51.821Z,9.10
2023-05-05T09:13:56.698Z,9.40
2023-05-05T09:17:03.218Z,9.30
2023-05-05T09:20:09.774Z,9.00
2023-05-05T09:23:16.138Z,9.60
2023-05-05T09:26:20.996Z,9.40
2023-05-05T09:29:26.019Z,9.40
2023-05-05T09:32:30.650Z,9.30
2023-05-05T09:36:07.634Z,9.30
2023-05-05T09:39:12.123Z,9.20
2023-05-05T09:42:19.657Z,9.70
2023-05-05T09:45:25.598Z,9.50
2023-05-05T09:48:32.056Z,9.60
2023-05-05T09:51:36.646Z,9.40
2023-05-05T09:54:42.078Z,9.70
2023-05-05T09:57:48.538Z,9.70
2023-05-05T10:00:54.592Z,9.60
2023-05-05T10:03:58.663Z,9.50
2023-05-05T10:07:03.752Z,9.90
2023-05-05T10:10:13.298Z,10.30
2023-05-05T10:13:20.339Z,9.80
2023-05-05T10:16:25.922Z,9.30
2023-05-05T10:19:35.073Z,9.20
2023-05-05T10:22:43.610Z,9.30
2023-05-05T10:25:54.744Z,9.40
2023-05-05T10:29:04.041Z,9.40
2023-05-05T10:35:35.599Z,9.30
2023-05-05T10:38:41.670Z,9.40
2023-05-05T10:41:47.367Z,9.20
2023-05-05T10:44:51.753Z,9.50
2023-05-05T10:47:59.190Z,9.40
2023-05-05T10:51:31.009Z,9.50
2023-05-05T10:54:48.230Z,9.60
2023-05-05T10:57:53.691Z,10.10
2023-05-05T11:00:58.246Z,9.70
2023-05-05T11:04:22.534Z,10.00
2023-05-05T11:07:27.460Z,9.40
2023-05-05T11:10:44.735Z,9.40
2023-05-05T11:14:22.317Z,9.20
2023-05-05T11:17:56.508Z,9.40
2023-05-05T11:21:04.248Z,9.30
2023-05-05T11:24:29.023Z,9.10
2023-05-05T11:28:14.544Z,9.10
2023-05-05T11:31:20.061Z,8.90
2023-05-05T11:34:27.938Z,9.00
2023-05-05T11:37:32.533Z,9.30
2023-05-05T11:40:41.318Z,9.30
2023-05-05T11:43:46.200Z,8.90
2023-05-05T11:46:56.348Z,8.90
2023-05-05T11:50:18.872Z,9.10
2023-05-05T11:53:23.368Z,8.90
2023-05-05T11:56:27.747Z,9.20
2023-05-05T11:59:32.253Z,9.40
2023-05-05T12:02:37.144Z,9.50
2023-05-05T12:05:41.890Z,9.60
2023-05-05T12:08:46.335Z,9.40
2023-05-05T12:11:55.150Z,9.30
2023-05-05T12:14:59.252Z,8.90
2023-05-05T12:18:05.870Z,8.60
2023-05-05T12:21:28.742Z,9.00
2023-05-05T12:24:33.182Z,8.90
2023-05-05T12:27:38.483Z,8.70
2023-05-05T12:30:42.648Z,8.80
2023-05-05T12:33:48.414Z,8.70
2023-05-05T12:36:53.136Z,8.60
2023-05-05T12:39:57.473Z,9.30
2023-05-05T12:43:02.906Z,9.10
2023-05-05T12:46:12.259Z,8.80
2023-05-05T12:49:17.545Z,8.70
2023-05-05T12:52:22.176Z,8.70
2023-05-05T12:55:39.959Z,8.90
2023-05-05T12:58:50.991Z,9.00
2023-05-05T13:01:57.309Z,9.10
2023-05-05T13:05:02.140Z,9.30
2023-05-05T13:08:06.775Z,9.30
2023-05-05T13:11:10.998Z,9.30
2023-05-05T13:14:15.636Z,8.90
2023-05-05T13:17:20.122Z,9.00
2023-05-05T13:20:24.494Z,9.00
2023-05-05T13:23:28.854Z,9.70
2023-05-05T13:26:33.325Z,9.50
2023-05-05T13:29:37.938Z,9.40
2023-05-05T13:32:42.516Z,9.40
2023-05-05T13:35:47.078Z,9.50
2023-05-05T13:38:51.480Z,9.10
2023-05-05T13:41:55.861Z,9.00
2023-05-05T13:45:00.236Z,9.40
2023-05-05T13:48:05.108Z,9.80
2023-05-05T13:51:09.833Z,9.40
2023-05-05T13:54:14.409Z,9.00
2023-05-05T13:57:18.498Z,9.00
2023-05-05T14:00:22.971Z,8.70
2023-05-05T14:03:27.587Z,8.80
2023-05-05T14:06:32.617Z,9.00
2023-05-05T14:09:37.172Z,8.50
2023-05-05T14:12:41.553Z,8.90
2023-05-05T14:15:46.446Z,8.70
2023-05-05T14:18:50.781Z,8.50
2023-05-05T14:21:55.484Z,8.30
2023-05-05T14:24:59.504Z,8.60
2023-05-05T14:28:03.937Z,8.50
2023-05-05T14:31:07.994Z,8.60
2023-05-05T14:34:12.288Z,8.40
2023-05-05T14:37:17.921Z,8.80
2023-05-05T14:40:22.098Z,8.50
2023-05-05T14:43:26.769Z,8.60
2023-05-05T14:46:31.640Z,8.80
2023-05-05T14:49:36.239Z,8.90
2023-05-05T14:52:40.627Z,9.10
2023-05-05T14:55:45.159Z,8.30
2023-05-05T14:58:49.783Z,8.50
2023-05-05T15:01:53.717Z,8.10
2023-05-05T15:04:57.936Z,8.30
2023-05-05T15:08:02.466Z,8.20
2023-05-05T15:11:07.121Z,8.40
2023-05-05T15:14:11.515Z,8.30
2023-05-05T15:17:15.914Z,8.80
2023-05-05T15:20:20.540Z,9.00
2023-05-05T15:23:24.975Z,8.90
2023-05-05T15:26:29.664Z,9.20
2023-05-05T15:29:34.575Z,8.80
2023-05-05T15:32:38.748Z,8.50
2023-05-05T15:35:43.192Z,7.90
2023-05-05T15:38:47.317Z,7.60
2023-05-05T15:41:52.002Z,8.00
2023-05-05T15:44:56.361Z,8.40
2023-05-05T15:48:00.548Z,9.70
2023-05-05T15:51:04.871Z,9.30
2023-05-05T15:54:09.419Z,9.00
2023-05-05T15:57:14.033Z,9.10
2023-05-05T16:00:18.726Z,8.90
2023-05-05T16:03:23.194Z,7.60
2023-05-05T16:06:27.896Z,7.40
2023-05-05T16:09:32.040Z,7.40
2023-05-05T16:12:36.689Z,7.30
2023-05-05T16:15:41.167Z,7.20
2023-05-05T16:18:45.500Z,7.10
2023-05-05T16:21:49.723Z,7.30
2023-05-05T16:24:54.202Z,6.70
2023-05-05T16:28:00.144Z,6.60
2023-05-05T16:31:04.835Z,6.60
2023-05-05T16:34:09.176Z,6.50
2023-05-05T16:37:13.334Z,6.50
2023-05-05T16:40:17.703Z,6.50
2023-05-05T16:43:21.921Z,6.50
2023-05-05T16:46:26.383Z,6.30
2023-05-05T16:49:30.690Z,6.10
2023-05-05T16:52:35.278Z,6.20
2023-05-05T16:55:39.219Z,6.20
2023-05-05T16:58:43.666Z,6.20
2023-05-05T17:01:48.123Z,6.10
2023-05-05T17:04:52.716Z,6.10
2023-05-05T17:07:56.924Z,6.20
2023-05-05T17:11:01.112Z,6.00
2023-05-05T17:14:05.481Z,5.90
2023-05-05T17:17:09.954Z,5.90
2023-05-05T17:20:14.444Z,6.00
2023-05-05T17:23:21.040Z,5.90
2023-05-05T17:26:25.140Z,5.90
2023-05-05T17:29:29.557Z,5.90
2023-05-05T17:32:34.030Z,5.80
2023-05-05T17:35:38.930Z,5.70
2023-05-05T17:38:43.429Z,5.70
2023-05-05T17:41:47.678Z,5.70
2023-05-05T17:44:51.936Z,5.70
2023-05-05T17:47:56.426Z,5.60
2023-05-05T17:51:00.865Z,5.60
2023-05-05T17:54:05.359Z,5.50
2023-05-05T17:57:09.683Z,5.50
2023-05-05T18:00:14.342Z,5.50
2023-05-05T18:03:18.906Z,5.40
2023-05-05T18:06:23.741Z,5.30
2023-05-05T18:09:28.081Z,5.30
2023-05-05T18:12:32.523Z,5.20
2023-05-05T18:15:36.876Z,5.20
2023-05-05T18:18:41.664Z,5.10
2023-05-05T18:21:46.420Z,5.10
2023-05-05T18:24:51.095Z,5.00
2023-05-05T18:27:55.717Z,5.00
2023-05-05T18:31:00.124Z,4.90
2023-05-05T18:34:04.283Z,4.90
2023-05-05T18:37:08.806Z,4.80
2023-05-05T18:40:13.509Z,4.80
2023-05-05T18:43:18.094Z,4.80
2023-05-05T18:46:22.513Z,4.70
2023-05-05T18:49:29.505Z,4.70
2023-05-05T18:52:35.281Z,4.60
2023-05-05T18:55:39.531Z,4.60
2023-05-05T18:58:44.093Z,4.50
2023-05-05T19:01:48.372Z,4.50
2023-05-05T19:04:52.575Z,4.50
2023-05-05T19:07:56.915Z,4.40
2023-05-05T19:11:01.440Z,4.40
2023-05-05T19:14:05.867Z,4.40
2023-05-05T19:17:10.136Z,4.40
2023-05-05T19:20:14.496Z,4.40
2023-05-05T19:23:19.048Z,4.40
2023-05-05T19:26:24.907Z,4.40
2023-05-05T19:29:32.005Z,4.30
2023-05-05T19:32:36.874Z,4.30
2023-05-05T19:35:42.192Z,4.30
2023-05-05T19:38:46.853Z,4.30
2023-05-05T19:41:53.007Z,4.20
2023-05-05T19:44:57.964Z,4.20
2023-05-05T19:48:02.570Z,4.20
2023-05-05T19:51:06.790Z,4.20
2023-05-05T19:54:11.269Z,4.30
2023-05-05T19:57:17.549Z,4.20
2023-05-05T20:00:21.861Z,4.20
2023-05-05T20:03:26.832Z,4.20
2023-05-05T20:06:33.024Z,4.20
2023-05-05T20:09:37.795Z,4.30
2023-05-05T20:12:47.928Z,4.30
2023-05-05T20:15:52.738Z,4.30
2023-05-05T20:18:57.048Z,4.30
2023-05-05T20:22:01.570Z,4.30
2023-05-05T20:25:06.932Z,4.30
2023-05-05T20:28:11.824Z,4.30
2023-05-05T20:31:16.393Z,4.30
2023-05-05T20:34:23.978Z,4.30
2023-05-05T20:37:28.432Z,4.30
2023-05-05T20:40:33.618Z,4.30
2023-05-05T20:43:38.671Z,4.30
2023-05-05T20:46:43.119Z,4.30
2023-05-05T20:49:47.424Z,4.40
2023-05-05T20:52:52.033Z,4.30
2023-05-05T20:55:56.439Z,4.30
2023-05-05T20:59:00.926Z,4.30
2023-05-05T21:02:05.400Z,4.30
2023-05-05T21:05:09.708Z,4.30
2023-05-05T21:08:14.253Z,4.30
2023-05-05T21:11:18.685Z,4.30
2023-05-05T21:14:23.660Z,4.30
2023-05-05T21:17:29.016Z,4.30
2023-05-05T21:20:33.123Z,4.30
2023-05-05T21:23:37.739Z,4.30
2023-05-05T21:26:45.609Z,4.30
2023-05-05T21:29:51.055Z,4.30
2023-05-05T21:32:55.348Z,4.30
2023-05-05T21:36:00.103Z,4.30
2023-05-05T21:39:04.312Z,4.30
2023-05-05T21:42:08.706Z,4.30
2023-05-05T21:45:13.155Z,4.30
2023-05-05T21:48:17.511Z,4.30
2023-05-05T21:51:23.409Z,4.20
2023-05-05T21:54:27.621Z,4.20
2023-05-05T21:57:32.219Z,4.20
2023-05-05T22:00:36.463Z,4.20
2023-05-05T22:03:43.486Z,4.10
2023-05-05T22:06:48.060Z,4.10
2023-05-05T22:09:55.290Z,4.10
2023-05-05T22:12:59.486Z,4.10
2023-05-05T22:16:03.809Z,4.00
2023-05-05T22:19:08.121Z,4.00
2023-05-05T22:22:12.421Z,4.00
2023-05-05T22:25:16.710Z,4.00
2023-05-05T22:28:21.567Z,3.90
2023-05-05T22:31:26.384Z,3.90
2023-05-05T22:34:30.723Z,3.90
2023-05-05T22:37:35.289Z,3.90
2023-05-05T22:40:39.801Z,3.80
2023-05-05T22:43:44.579Z,3.90
2023-05-05T22:46:48.814Z,3.80
2023-05-05T22:49:53.546Z,3.80
2023-05-05T22:52:58.231Z,3.80
2023-05-05T22:56:02.444Z,3.80
2023-05-05T22:59:06.834Z,3.80
2023-05-05T23:02:11.798Z,3.70
2023-05-05T23:05:16.028Z,3.80
2023-05-05T23:08:20.499Z,3.80
2023-05-05T23:11:26.377Z,3.80
2023-05-05T23:14:30.643Z,3.80
2023-05-05T23:17:35.084Z,3.70
2023-05-05T23:20:39.545Z,3.70
2023-05-05T23:23:43.878Z,3.70
2023-05-05T23:26:48.201Z,3.70
2023-05-05T23:29:52.837Z,3.70
2023-05-05T23:32:57.941Z,3.70
2023-05-05T23:36:02.271Z,3.70
2023-05-05T23:39:07.721Z,3.70
2023-05-05T23:42:12.066Z,3.70
2023-05-05T23:45:19.229Z,3.60
2023-05-05T23:48:24.831Z,3.60
2023-05-05T23:51:29.373Z,3.60
2023-05-05T23:54:34.022Z,3.60
2023-05-05T23:57:38.497Z,3.60
